Katav-Ivanovsk, Russia
Current Conditions -  °F | °C
As of 4:30 AM on Tuesday 21 Oct 2014 (Local Time) from UWUU Reporting Station
Light Snow Light Snow  
Wind Chill: 13°   Ceiling: 1400
Heat Index: 23°   Visibility: 1.5mi
Dew Point: 23°   Wind: 9mph
Humidity: 100%   Direction: 160°SSE
Pressure: 29.74"   Gusts: NA
Location:  54.75°N, 58.2°E
Report Text: UWUU 202230Z 16004MPS 2500 -SN OVC014 M05/M05 Q1007 64490548TEMPO 1200 SN BKN006 RMK QFE745/0994
Loading
Personal Weather Stations






























Interactive Weather Map
Tropical Storm Tracking
New forecast layout! Learn more

10-Day Weather Forecast

Advertisements
Track Severe Weather on mobile